Time;durP1;ratioP1;P1;durP2;ratioP2;P2;SDS_P1;SDS_P2;PMS_P1;PMS_P2;Temp;Humidity;BMP_temperature;BMP_pressure;BME280_temperature;BME280_humidity;BME280_pressure;Samples;Min_cycle;Max_cycle;Signal;HPM_P1;HPM_P2
2021/12/08 00:01:44;;;;;;;5.43;2.50;;;;;;;;;;5061503;28;20032;-73
2021/12/08 00:04:10;;;;;;;8.77;2.92;;;;;;;;;;5064544;28;20029;-72
2021/12/08 00:06:36;;;;;;;8.70;3.33;;;;;;;;;;5064738;28;20040;-73
2021/12/08 00:09:19;;;;;;;11.48;3.28;;;;;;;;;;5065282;28;20037;-73
2021/12/08 00:14:30;;;;;;;12.07;3.88;;;;;;;;;;5055126;28;20040;-70
2021/12/08 00:16:56;;;;;;;13.00;3.40;;;;;;;;;;5060247;28;20116;-71
2021/12/08 00:19:23;;;;;;;10.88;3.45;;;;;;;;;;5061793;28;20029;-71
2021/12/08 00:21:49;;;;;;;17.80;3.67;;;;;;;;;;5067829;28;20553;-71
2021/12/08 00:24:15;;;;;;;13.48;3.70;;;;;;;;;;5066539;28;20046;-72
2021/12/08 00:26:41;;;;;;;8.70;2.88;;;;;;;;;;5064445;28;20025;-72
2021/12/08 00:29:07;;;;;;;10.23;3.30;;;;;;;;;;5062238;28;20537;-72
2021/12/08 00:31:34;;;;;;;11.02;3.30;;;;;;;;;;5075826;28;20025;-71
2021/12/08 00:34:00;;;;;;;13.25;4.82;;;;;;;;;;5063053;28;20048;-72
2021/12/08 00:36:31;;;;;;;10.98;4.80;;;;;;;;;;5054311;28;20094;-72
2021/12/08 00:38:57;;;;;;;7.00;3.05;;;;;;;;;;5048555;28;20036;-72
2021/12/08 00:41:23;;;;;;;12.32;3.85;;;;;;;;;;5057903;28;20040;-71
2021/12/08 00:43:49;;;;;;;12.30;3.63;;;;;;;;;;5057879;28;20035;-71
2021/12/08 00:46:15;;;;;;;10.35;4.05;;;;;;;;;;5059630;28;20048;-72
2021/12/08 00:48:48;;;;;;;8.35;3.72;;;;;;;;;;5049995;28;20498;-71
2021/12/08 00:51:14;;;;;;;9.05;3.03;;;;;;;;;;5058023;28;20070;-71
2021/12/08 00:53:40;;;;;;;14.02;4.10;;;;;;;;;;5044627;28;20041;-71
2021/12/08 00:56:06;;;;;;;12.50;3.30;;;;;;;;;;5059925;28;20045;-72
2021/12/08 00:58:32;;;;;;;11.15;4.00;;;;;;;;;;5066626;28;20071;-72
2021/12/08 01:00:58;;;;;;;8.27;3.92;;;;;;;;;;5058173;28;20047;-71
2021/12/08 01:03:24;;;;;;;10.13;5.20;;;;;;;;;;5059054;28;20029;-71
2021/12/08 01:05:52;;;;;;;15.60;5.95;;;;;;;;;;5063973;28;20086;-71
2021/12/08 01:08:18;;;;;;;15.15;4.53;;;;;;;;;;5065119;28;20035;-71
2021/12/08 01:10:45;;;;;;;25.17;5.32;;;;;;;;;;5060116;28;20040;-72
2021/12/08 01:13:12;;;;;;;14.65;4.60;;;;;;;;;;5053807;28;20028;-72
2021/12/08 01:15:41;;;;;;;14.65;5.15;;;;;;;;;;5059554;28;20175;-72
2021/12/08 01:18:07;;;;;;;9.65;4.43;;;;;;;;;;5062596;28;20505;-72
2021/12/08 01:20:34;;;;;;;9.75;5.30;;;;;;;;;;5057896;28;20033;-72
2021/12/08 01:23:00;;;;;;;11.35;4.50;;;;;;;;;;5039082;28;20033;-72
2021/12/08 01:25:26;;;;;;;12.30;4.13;;;;;;;;;;5069724;28;20123;-71
2021/12/08 01:27:52;;;;;;;11.40;4.72;;;;;;;;;;5066280;28;20033;-71
2021/12/08 01:30:18;;;;;;;9.73;4.53;;;;;;;;;;5045789;28;20542;-71
2021/12/08 01:32:44;;;;;;;9.25;4.38;;;;;;;;;;5062251;28;20035;-71
2021/12/08 01:35:10;;;;;;;12.45;4.72;;;;;;;;;;5066582;28;20037;-71
2021/12/08 01:37:37;;;;;;;13.48;5.18;;;;;;;;;;5058804;28;20037;-72
2021/12/08 01:40:07;;;;;;;9.95;4.35;;;;;;;;;;5057349;28;20035;-72
2021/12/08 01:42:41;;;;;;;11.82;6.38;;;;;;;;;;5060865;28;20074;-72
2021/12/08 01:47:52;;;;;;;13.02;5.85;;;;;;;;;;5062514;28;20122;-74
2021/12/08 01:50:18;;;;;;;13.18;5.13;;;;;;;;;;5066722;28;20029;-72
2021/12/08 01:52:44;;;;;;;14.40;6.18;;;;;;;;;;5050639;28;20050;-71
2021/12/08 01:55:11;;;;;;;11.50;5.40;;;;;;;;;;5064906;28;20135;-71
2021/12/08 01:57:38;;;;;;;16.23;5.55;;;;;;;;;;5058549;28;20037;-71
2021/12/08 02:00:09;;;;;;;15.55;5.88;;;;;;;;;;5057819;28;20032;-72
2021/12/08 02:02:35;;;;;;;16.58;6.13;;;;;;;;;;5064791;28;20060;-73
2021/12/08 02:05:01;;;;;;;9.02;5.40;;;;;;;;;;5062718;28;20036;-72
2021/12/08 02:07:27;;;;;;;12.30;6.32;;;;;;;;;;5062375;28;20090;-72
2021/12/08 02:09:53;;;;;;;10.52;6.05;;;;;;;;;;5060333;28;20037;-72
2021/12/08 02:12:19;;;;;;;14.10;5.75;;;;;;;;;;5062722;28;20036;-71
2021/12/08 02:14:45;;;;;;;13.68;5.88;;;;;;;;;;5060225;28;20032;-72
2021/12/08 02:17:11;;;;;;;14.20;6.68;;;;;;;;;;5049624;28;20056;-72
2021/12/08 02:19:38;;;;;;;13.73;7.85;;;;;;;;;;5063540;28;20123;-72
2021/12/08 02:22:04;;;;;;;13.50;7.15;;;;;;;;;;5064201;28;20013;-71
2021/12/08 02:24:30;;;;;;;9.13;5.75;;;;;;;;;;5063653;28;20032;-71
2021/12/08 02:26:57;;;;;;;7.22;5.90;;;;;;;;;;5075924;28;20089;-72
2021/12/08 02:29:46;;;;;;;14.35;6.50;;;;;;;;;;5069982;28;20515;-72
2021/12/08 02:48:30;;;;;;;9.73;6.38;;;;;;;;;;5070026;28;20067;-71
2021/12/08 02:50:57;;;;;;;14.15;6.90;;;;;;;;;;5048647;28;20744;-72
2021/12/08 02:53:23;;;;;;;9.95;6.43;;;;;;;;;;5069137;28;20498;-71
2021/12/08 02:55:49;;;;;;;12.60;7.65;;;;;;;;;;5064769;28;20048;-71
2021/12/08 02:58:17;;;;;;;15.02;6.88;;;;;;;;;;5065338;28;20044;-71
2021/12/08 03:00:46;;;;;;;11.65;7.00;;;;;;;;;;5063662;28;20126;-72
2021/12/08 03:03:12;;;;;;;9.38;7.53;;;;;;;;;;5071438;28;20032;-72
2021/12/08 03:05:38;;;;;;;11.00;7.47;;;;;;;;;;5065152;28;20027;-72
2021/12/08 03:08:05;;;;;;;14.73;8.13;;;;;;;;;;5073350;28;20033;-72
2021/12/08 03:10:33;;;;;;;13.13;7.72;;;;;;;;;;5067226;28;20031;-73
2021/12/08 03:13:00;;;;;;;12.77;7.97;;;;;;;;;;5063898;28;20067;-72
2021/12/08 03:15:26;;;;;;;18.45;8.77;;;;;;;;;;5063747;28;20039;-71
2021/12/08 03:17:52;;;;;;;12.15;8.63;;;;;;;;;;5048720;28;20037;-71
2021/12/08 03:20:22;;;;;;;13.02;9.27;;;;;;;;;;5070135;28;20036;-72
2021/12/08 03:22:50;;;;;;;19.88;10.00;;;;;;;;;;5064996;28;20041;-72
2021/12/08 03:25:20;;;;;;;14.70;9.20;;;;;;;;;;5061549;28;20482;-72
2021/12/08 03:28:03;;;;;;;17.73;8.45;;;;;;;;;;5063938;28;20024;-70
2021/12/08 03:30:34;;;;;;;;;;;;;;;;;;5064419;28;20033;-72
2021/12/08 03:33:01;;;;;;;12.45;8.60;;;;;;;;;;5070257;28;21308;-73
2021/12/08 03:35:27;;;;;;;33.95;17.83;;;;;;;;;;5055269;28;20047;-75
2021/12/08 03:37:53;;;;;;;15.73;8.93;;;;;;;;;;5062385;28;20080;-73
2021/12/08 03:40:24;;;;;;;11.43;8.27;;;;;;;;;;5069013;28;20075;-73
2021/12/08 03:42:51;;;;;;;19.13;9.15;;;;;;;;;;5066012;28;20497;-72
2021/12/08 03:45:19;;;;;;;15.98;9.50;;;;;;;;;;5057085;28;20067;-73
2021/12/08 03:47:47;;;;;;;14.32;8.23;;;;;;;;;;5070247;28;20024;-72
2021/12/08 03:50:16;;;;;;;16.77;9.07;;;;;;;;;;5060110;28;20037;-73
2021/12/08 03:52:43;;;;;;;14.70;9.85;;;;;;;;;;5061131;28;20491;-72
2021/12/08 03:55:10;;;;;;;15.15;9.65;;;;;;;;;;5059842;28;20028;-72
2021/12/08 03:57:36;;;;;;;14.85;9.50;;;;;;;;;;5070610;28;20131;-73
2021/12/08 04:00:05;;;;;;;18.27;11.55;;;;;;;;;;5062337;28;20159;-72
2021/12/08 04:02:31;;;;;;;19.80;10.77;;;;;;;;;;5061084;28;20037;-72
2021/12/08 04:04:57;;;;;;;16.05;10.45;;;;;;;;;;5062610;28;20029;-72
2021/12/08 04:07:25;;;;;;;17.92;10.38;;;;;;;;;;5061978;28;20033;-72
2021/12/08 04:09:51;;;;;;;17.08;11.57;;;;;;;;;;5065190;28;20025;-72
2021/12/08 04:12:18;;;;;;;19.13;11.00;;;;;;;;;;5073941;28;20043;-73
2021/12/08 04:14:47;;;;;;;19.00;11.40;;;;;;;;;;5064936;28;20439;-72
2021/12/08 04:17:15;;;;;;;14.60;10.30;;;;;;;;;;5060406;28;20036;-73
2021/12/08 04:19:42;;;;;;;13.23;9.88;;;;;;;;;;5067447;28;20089;-73
2021/12/08 04:22:16;;;;;;;21.38;10.88;;;;;;;;;;5064571;28;20046;-73
2021/12/08 04:24:43;;;;;;;16.92;10.55;;;;;;;;;;5056172;28;20064;-73
2021/12/08 04:27:12;;;;;;;23.10;11.13;;;;;;;;;;5064941;28;20110;-73
2021/12/08 04:29:40;;;;;;;25.23;12.50;;;;;;;;;;5059381;28;20028;-73
2021/12/08 04:32:08;;;;;;;14.77;10.65;;;;;;;;;;5061653;28;20035;-73
2021/12/08 04:34:38;;;;;;;13.35;9.88;;;;;;;;;;5060864;28;20605;-74
2021/12/08 04:37:07;;;;;;;19.77;11.38;;;;;;;;;;5060661;28;20035;-73
2021/12/08 04:39:47;;;;;;;21.70;10.70;;;;;;;;;;5069835;28;20065;-73
2021/12/08 04:42:18;;;;;;;13.95;10.70;;;;;;;;;;5061977;28;20383;-73
2021/12/08 04:44:51;;;;;;;17.67;11.35;;;;;;;;;;5059154;28;20497;-73
2021/12/08 04:47:34;;;;;;;16.23;10.45;;;;;;;;;;5062709;28;20043;-73
2021/12/08 05:01:44;;;;;;;18.15;11.25;;;;;;;;;;5063720;28;20040;-71
2021/12/08 05:06:18;;;;;;;15.80;11.65;;;;;;;;;;5056823;28;20035;-73
2021/12/08 05:08:45;;;;;;;21.15;12.07;;;;;;;;;;5068508;28;20418;-72
2021/12/08 05:11:14;;;;;;;17.95;10.60;;;;;;;;;;5067910;28;20025;-72
2021/12/08 05:13:41;;;;;;;19.55;10.95;;;;;;;;;;5063241;28;20035;-72
2021/12/08 05:16:07;;;;;;;17.25;10.02;;;;;;;;;;5065387;28;20135;-72
2021/12/08 05:18:35;;;;;;;14.65;10.07;;;;;;;;;;5064870;28;20064;-73
2021/12/08 05:21:23;;;;;;;17.95;10.60;;;;;;;;;;5062395;28;20047;-73
2021/12/08 05:23:51;;;;;;;14.98;9.65;;;;;;;;;;5062028;28;20025;-73
2021/12/08 05:26:21;;;;;;;19.98;9.82;;;;;;;;;;5061669;28;20033;-73
2021/12/08 05:28:48;;;;;;;13.43;10.02;;;;;;;;;;5066780;28;20111;-73
2021/12/08 05:31:25;;;;;;;19.10;10.20;;;;;;;;;;5059415;28;20434;-73
2021/12/08 05:33:52;;;;;;;17.85;9.18;;;;;;;;;;5067246;28;20394;-72
2021/12/08 05:36:18;;;;;;;13.82;9.25;;;;;;;;;;5060131;28;20035;-73
2021/12/08 05:38:44;;;;;;;12.40;9.27;;;;;;;;;;5059665;28;20063;-72
2021/12/08 05:41:16;;;;;;;21.20;10.45;;;;;;;;;;5062605;28;20033;-72
2021/12/08 05:43:43;;;;;;;18.80;9.13;;;;;;;;;;5065605;28;20029;-73
2021/12/08 05:46:10;;;;;;;13.27;8.55;;;;;;;;;;5061932;28;20381;-72
2021/12/08 05:48:36;;;;;;;17.67;10.57;;;;;;;;;;5062388;28;20107;-72
2021/12/08 05:51:11;;;;;;;13.88;8.93;;;;;;;;;;5060348;28;20032;-73
2021/12/08 05:53:38;;;;;;;14.82;8.93;;;;;;;;;;5068612;28;20055;-73
2021/12/08 05:56:05;;;;;;;16.70;9.65;;;;;;;;;;5065982;28;20083;-73
2021/12/08 05:58:31;;;;;;;17.38;8.35;;;;;;;;;;5068376;28;20047;-73
2021/12/08 06:01:00;;;;;;;16.48;8.18;;;;;;;;;;5070390;28;20423;-75
2021/12/08 06:03:26;;;;;;;11.85;8.52;;;;;;;;;;5065242;28;20064;-74
2021/12/08 06:05:53;;;;;;;19.13;8.25;;;;;;;;;;5062157;28;20064;-73
2021/12/08 06:08:20;;;;;;;13.43;7.22;;;;;;;;;;5075057;28;20044;-72
2021/12/08 06:10:46;;;;;;;17.25;9.18;;;;;;;;;;5067333;28;20037;-74
2021/12/08 06:13:13;;;;;;;14.35;8.40;;;;;;;;;;5077696;28;20040;-74
2021/12/08 06:15:41;;;;;;;23.60;11.48;;;;;;;;;;5065196;28;20117;-74
2021/12/08 06:18:07;;;;;;;12.38;8.57;;;;;;;;;;5063144;28;20043;-73
2021/12/08 06:20:33;;;;;;;17.38;7.57;;;;;;;;;;5067421;28;20038;-73
2021/12/08 06:23:00;;;;;;;14.38;8.45;;;;;;;;;;5070268;28;20161;-73
2021/12/08 06:25:27;;;;;;;16.17;8.15;;;;;;;;;;5049583;28;20120;-73
2021/12/08 06:27:53;;;;;;;23.48;8.45;;;;;;;;;;5060524;28;20505;-74
2021/12/08 06:30:29;;;;;;;17.98;8.45;;;;;;;;;;5061663;28;20064;-73
2021/12/08 06:32:55;;;;;;;16.92;8.57;;;;;;;;;;5059871;28;20028;-73
2021/12/08 06:35:30;;;;;;;13.38;7.70;;;;;;;;;;5051142;28;20055;-74
2021/12/08 06:37:58;;;;;;;21.10;8.20;;;;;;;;;;5062347;28;20394;-73
2021/12/08 06:40:30;;;;;;;14.02;8.70;;;;;;;;;;5059467;28;20024;-74
2021/12/08 06:42:58;;;;;;;19.05;7.60;;;;;;;;;;5071874;28;20059;-72
2021/12/08 06:45:27;;;;;;;15.10;7.45;;;;;;;;;;5060732;28;20677;-74
2021/12/08 06:47:53;;;;;;;15.88;7.28;;;;;;;;;;5060087;28;20076;-72
2021/12/08 06:50:27;;;;;;;13.35;6.97;;;;;;;;;;5064302;28;20044;-72
2021/12/08 06:52:54;;;;;;;16.17;8.13;;;;;;;;;;5069677;28;20052;-73
2021/12/08 06:55:22;;;;;;;9.98;6.75;;;;;;;;;;5066848;28;20115;-73
2021/12/08 06:57:57;;;;;;;21.05;10.35;;;;;;;;;;5063704;28;20067;-73
2021/12/08 07:03:31;;;;;;;14.80;7.30;;;;;;;;;;5068144;28;20791;-73
2021/12/08 07:08:24;;;;;;;18.75;7.22;;;;;;;;;;5072726;28;20043;-74
2021/12/08 07:10:52;;;;;;;13.80;6.55;;;;;;;;;;5067899;28;20021;-73
2021/12/08 07:13:20;;;;;;;12.93;6.03;;;;;;;;;;5062596;28;20029;-73
2021/12/08 07:15:50;;;;;;;12.93;6.05;;;;;;;;;;5069177;28;20055;-74
2021/12/08 07:18:19;;;;;;;12.27;5.80;;;;;;;;;;5057506;28;20031;-75
2021/12/08 07:20:47;;;;;;;21.55;6.68;;;;;;;;;;5066062;28;20446;-74
2021/12/08 07:23:18;;;;;;;9.20;5.18;;;;;;;;;;5063953;28;20025;-74
2021/12/08 07:25:44;;;;;;;14.20;4.35;;;;;;;;;;5071585;28;20036;-73
2021/12/08 07:28:11;;;;;;;11.93;5.30;;;;;;;;;;5068034;28;20037;-73
2021/12/08 07:30:42;;;;;;;10.13;4.18;;;;;;;;;;5065131;28;20199;-74
2021/12/08 07:33:08;;;;;;;9.98;3.53;;;;;;;;;;5064322;28;20028;-74
2021/12/08 07:35:41;;;;;;;12.20;3.67;;;;;;;;;;5081942;28;20032;-75
2021/12/08 07:38:09;;;;;;;7.95;3.65;;;;;;;;;;5067355;28;20039;-74
2021/12/08 07:40:48;;;;;;;12.25;4.90;;;;;;;;;;5078588;28;20104;-77
2021/12/08 07:43:16;;;;;;;13.88;3.85;;;;;;;;;;5066238;28;20037;-75
2021/12/08 07:45:42;;;;;;;12.93;4.97;;;;;;;;;;5071051;28;20020;-75
2021/12/08 07:48:10;;;;;;;9.85;4.10;;;;;;;;;;5068525;28;20063;-76
2021/12/08 07:50:39;;;;;;;10.95;3.22;;;;;;;;;;5066486;28;20114;-75
2021/12/08 07:53:07;;;;;;;15.68;4.35;;;;;;;;;;5060189;28;20033;-75
2021/12/08 07:55:39;;;;;;;13.10;3.47;;;;;;;;;;5062519;28;20052;-75
2021/12/08 07:58:06;;;;;;;14.15;3.58;;;;;;;;;;5066172;28;20162;-75
2021/12/08 08:00:34;;;;;;;12.07;3.72;;;;;;;;;;5066363;28;20035;-75
2021/12/08 08:03:01;;;;;;;15.25;6.18;;;;;;;;;;5067033;28;20033;-75
2021/12/08 08:05:29;;;;;;;9.82;3.13;;;;;;;;;;5067028;28;20390;-75
2021/12/08 08:08:02;;;;;;;6.78;3.15;;;;;;;;;;5082854;28;20500;-75
2021/12/08 08:10:29;;;;;;;11.23;2.47;;;;;;;;;;5064300;28;20028;-75
2021/12/08 08:13:00;;;;;;;10.43;3.17;;;;;;;;;;5059668;28;20055;-75
2021/12/08 08:15:29;;;;;;;7.60;2.85;;;;;;;;;;5065638;28;20039;-75
2021/12/08 08:17:55;;;;;;;11.68;3.28;;;;;;;;;;5072469;28;20032;-75
2021/12/08 08:20:29;;;;;;;10.75;3.05;;;;;;;;;;5067258;28;20437;-75
2021/12/08 08:22:56;;;;;;;13.27;3.10;;;;;;;;;;5062362;28;20553;-75
2021/12/08 08:25:23;;;;;;;9.70;2.30;;;;;;;;;;5065931;28;20529;-75
2021/12/08 08:27:50;;;;;;;10.57;2.30;;;;;;;;;;5044714;28;20043;-75
2021/12/08 08:30:18;;;;;;;10.48;2.50;;;;;;;;;;5051752;28;20482;-75
2021/12/08 08:32:48;;;;;;;11.38;2.97;;;;;;;;;;5065421;28;20025;-75
2021/12/08 08:35:20;;;;;;;20.88;5.75;;;;;;;;;;5067366;28;20021;-75
2021/12/08 08:37:47;;;;;;;10.23;2.95;;;;;;;;;;5065571;28;20032;-76
2021/12/08 08:40:33;;;;;;;11.55;2.60;;;;;;;;;;5056496;28;20550;-75
2021/12/08 08:43:00;;;;;;;28.80;9.82;;;;;;;;;;5060147;28;20036;-75
2021/12/08 08:45:38;;;;;;;23.17;6.93;;;;;;;;;;5069467;28;20025;-76
2021/12/08 08:48:04;;;;;;;34.28;11.93;;;;;;;;;;5055166;28;20376;-75
2021/12/08 08:50:33;;;;;;;12.38;3.63;;;;;;;;;;5059831;28;20032;-75
2021/12/08 08:52:59;;;;;;;17.92;6.32;;;;;;;;;;5059231;28;20028;-73
2021/12/08 08:55:33;;;;;;;11.45;2.30;;;;;;;;;;5060752;28;20429;-76
2021/12/08 08:58:00;;;;;;;7.32;1.90;;;;;;;;;;5070947;28;20044;-75
2021/12/08 09:00:55;;;;;;;7.88;2.15;;;;;;;;;;5064591;28;20063;-75
2021/12/08 09:03:23;;;;;;;12.38;1.50;;;;;;;;;;5046282;28;20127;-75
2021/12/08 09:06:10;;;;;;;15.85;2.72;;;;;;;;;;5071930;28;20048;-75
2021/12/08 09:08:37;;;;;;;11.93;2.22;;;;;;;;;;5065599;28;20110;-75
2021/12/08 09:11:12;;;;;;;17.27;2.03;;;;;;;;;;5078352;28;20032;-75
2021/12/08 09:13:46;;;;;;;9.27;2.10;;;;;;;;;;5063530;28;20016;-75
2021/12/08 09:16:15;;;;;;;13.35;2.53;;;;;;;;;;5071236;28;20056;-75
2021/12/08 09:18:48;;;;;;;13.57;2.30;;;;;;;;;;5067918;28;20036;-75
2021/12/08 09:21:23;;;;;;;14.50;1.98;;;;;;;;;;5063862;28;20479;-74
2021/12/08 09:24:00;;;;;;;12.85;1.85;;;;;;;;;;5069498;28;20371;-76
2021/12/08 09:26:27;;;;;;;9.20;1.73;;;;;;;;;;5064486;28;20063;-73
2021/12/08 09:29:14;;;;;;;11.68;2.33;;;;;;;;;;5067151;28;20046;-74
2021/12/08 09:31:42;;;;;;;9.02;2.03;;;;;;;;;;5066268;28;20054;-74
2021/12/08 09:34:08;;;;;;;12.05;2.03;;;;;;;;;;5054427;28;20028;-73
2021/12/08 09:36:38;;;;;;;7.90;2.47;;;;;;;;;;5066315;28;20040;-74
2021/12/08 09:39:10;;;;;;;17.02;3.05;;;;;;;;;;5055727;28;20074;-73
2021/12/08 09:41:41;;;;;;;9.60;2.25;;;;;;;;;;5053394;28;20075;-74
2021/12/08 09:44:11;;;;;;;11.13;2.73;;;;;;;;;;5061945;28;20433;-74
2021/12/08 09:46:39;;;;;;;14.50;3.38;;;;;;;;;;5064401;28;20037;-74
2021/12/08 09:49:06;;;;;;;7.22;2.40;;;;;;;;;;5063191;28;20028;-74
2021/12/08 09:51:32;;;;;;;7.43;2.05;;;;;;;;;;5055280;28;20412;-74
2021/12/08 09:53:58;;;;;;;10.80;2.60;;;;;;;;;;5062915;28;20413;-74
2021/12/08 09:56:25;;;;;;;15.65;2.45;;;;;;;;;;5063831;28;20068;-74
2021/12/08 09:58:53;;;;;;;14.95;2.80;;;;;;;;;;5058453;28;20036;-74
2021/12/08 10:01:21;;;;;;;11.63;2.78;;;;;;;;;;5058362;28;20056;-74
2021/12/08 10:03:48;;;;;;;18.10;3.20;;;;;;;;;;5061517;28;20363;-75
2021/12/08 10:06:15;;;;;;;11.30;2.55;;;;;;;;;;5058036;28;20029;-74
2021/12/08 10:08:42;;;;;;;12.40;2.53;;;;;;;;;;5064446;28;20128;-75
2021/12/08 10:11:09;;;;;;;11.05;2.60;;;;;;;;;;5069706;28;20033;-75
2021/12/08 10:13:35;;;;;;;11.88;2.08;;;;;;;;;;5067660;28;20095;-74
2021/12/08 10:16:01;;;;;;;13.73;2.78;;;;;;;;;;5061713;28;20056;-75
2021/12/08 10:18:27;;;;;;;8.23;2.08;;;;;;;;;;5067317;28;20047;-74
2021/12/08 10:20:55;;;;;;;14.77;2.72;;;;;;;;;;5062903;28;20036;-75
2021/12/08 10:23:27;;;;;;;10.75;2.05;;;;;;;;;;5083891;28;20363;-75
2021/12/08 10:26:04;;;;;;;10.30;2.53;;;8.80;99.90;;;;;;5063505;28;20569;-76
2021/12/08 10:28:32;;;;;;;9.75;2.70;;;;;;;;;;5054627;28;20016;-76
2021/12/08 10:31:04;;;;;;;17.05;3.65;;;;;;;;;;5062418;28;20095;-74
2021/12/08 10:33:37;;;;;;;7.38;2.25;;;;;;;;;;5059482;28;20534;-75
2021/12/08 10:36:17;;;;;;;10.70;2.30;;;;;;;;;;5049931;28;20036;-74
2021/12/08 10:38:43;;;;;;;7.20;2.20;;;;;;;;;;5061820;28;20036;-75
2021/12/08 10:41:09;;;;;;;10.07;2.38;;;;;;;;;;5046170;28;20054;-74
2021/12/08 10:43:35;;;;;;;9.18;2.25;;;;;;;;;;5064188;28;20032;-74
2021/12/08 10:46:06;;;;;;;10.10;2.78;;;;;;;;;;5062129;28;20036;-75
2021/12/08 10:48:43;;;;;;;9.82;1.98;;;;;;;;;;5059987;28;20467;-75
2021/12/08 10:54:27;;;;;;;10.02;2.75;;;;;;;;;;5070700;28;20122;-75
2021/12/08 10:56:57;;;;;;;12.93;1.77;;;;;;;;;;5064410;28;20044;-75
2021/12/08 10:59:54;;;;;;;8.93;2.08;;;8.30;99.90;;;;;;5082703;28;20484;-75
2021/12/08 11:02:45;;;;;;;9.98;1.77;;;8.00;99.90;;;;;;5061544;28;20486;-75
2021/12/08 11:05:38;;;;;;;12.35;2.00;;;;;;;;;;5065082;28;20032;-75
2021/12/08 11:08:27;;;;;;;12.85;2.05;;;7.30;99.90;;;;;;5074289;28;20036;-75
2021/12/08 11:10:56;;;;;;;14.60;2.50;;;;;;;;;;5062461;28;21172;-75
2021/12/08 11:13:24;;;;;;;5.85;1.45;;;;;;;;;;5060195;28;20057;-75
2021/12/08 11:15:58;;;;;;;14.20;2.78;;;;;;;;;;5067476;28;20429;-74
2021/12/08 11:18:26;;;;;;;14.30;2.00;;;;;;;;;;5066693;28;20024;-74
2021/12/08 11:21:01;;;;;;;15.70;1.92;;;6.70;99.90;;;;;;5064170;28;20016;-75
2021/12/08 11:23:40;;;;;;;13.95;3.72;;;;;;;;;;5066534;28;20058;-75
2021/12/08 11:26:13;;;;;;;9.98;2.40;;;;;;;;;;5053592;28;20028;-74
2021/12/08 11:28:40;;;;;;;8.63;2.38;;;;;;;;;;5065388;28;20032;-75
2021/12/08 11:31:06;;;;;;;12.07;4.55;;;;;;;;;;5067656;28;20036;-75
2021/12/08 11:33:33;;;;;;;12.20;2.53;;;;;;;;;;5065003;28;20032;-75
2021/12/08 11:36:12;;;;;;;14.15;2.10;;;;;;;;;;5088346;28;20028;-75
2021/12/08 11:38:40;;;;;;;4.75;1.60;;;;;;;;;;5063040;28;20036;-75
2021/12/08 11:41:10;;;;;;;5.95;2.00;;;6.90;99.90;;;;;;5059544;28;20036;-75
2021/12/08 11:43:36;;;;;;;9.43;2.03;;;;;;;;;;5065861;28;20111;-76
2021/12/08 11:46:16;;;;;;;10.70;2.63;;;;;;;;;;5059599;28;20108;-75
2021/12/08 11:48:50;;;;;;;9.27;2.40;;;;;;;;;;5066034;28;20029;-76
2021/12/08 11:51:18;;;;;;;10.75;2.05;;;;;;;;;;5065245;28;20043;-75
2021/12/08 11:53:44;;;;;;;7.25;1.70;;;;;;;;;;5070629;28;20040;-75
2021/12/08 11:56:29;;;;;;;9.93;2.30;;;;;;;;;;5050052;28;20482;-76
2021/12/08 11:58:56;;;;;;;10.65;1.60;;;;;;;;;;5070023;28;20060;-75
2021/12/08 12:01:22;;;;;;;8.93;2.10;;;;;;;;;;5071631;28;20561;-75
2021/12/08 12:03:48;;;;;;;12.43;2.92;;;;;;;;;;5049389;28;20037;-75
2021/12/08 12:06:14;;;;;;;12.20;2.25;;;;;;;;;;5068004;28;20025;-75
2021/12/08 12:08:40;;;;;;;9.15;2.40;;;;;;;;;;5052518;28;20048;-75
2021/12/08 12:11:06;;;;;;;10.10;2.03;;;;;;;;;;5064972;28;20091;-75
2021/12/08 12:13:33;;;;;;;18.52;5.40;;;;;;;;;;5049746;28;20056;-76
2021/12/08 12:15:59;;;;;;;12.50;3.05;;;;;;;;;;5047758;28;20391;-75
2021/12/08 12:18:31;;;;;;;25.02;7.80;;;;;;;;;;5062751;28;20055;-76
2021/12/08 12:21:15;;;;;;;14.10;3.90;;;6.40;99.90;;;;;;5066892;28;20033;-76
2021/12/08 12:24:02;;;;;;;16.33;5.35;;;;;;;;;;5065539;28;20021;-76
2021/12/08 12:26:40;;;;;;;16.95;4.90;;;;;;;;;;5055208;28;20123;-75
2021/12/08 12:29:25;;;;;;;21.30;8.88;;;;;;;;;;5069699;28;20048;-77
2021/12/08 12:31:54;;;;;;;17.20;7.45;;;;;;;;;;5059999;28;20024;-76
2021/12/08 12:34:32;;;;;;;8.90;4.25;;;6.20;99.90;;;;;;5069534;28;20091;-76
2021/12/08 12:37:03;;;;;;;12.27;4.43;;;6.50;99.90;;;;;;5063325;28;20028;-75
2021/12/08 12:39:30;;;;;;;10.18;2.85;;;;;;;;;;5073101;28;20020;-77
2021/12/08 12:42:15;;;;;;;11.75;3.53;;;;;;;;;;5066054;28;20043;-75
2021/12/08 12:44:42;;;;;;;12.43;4.85;;;;;;;;;;5051237;28;20028;-75
2021/12/08 12:47:22;;;;;;;12.52;4.47;;;;;;;;;;5069522;28;20028;-75
2021/12/08 12:50:02;;;;;;;11.82;2.33;;;6.50;99.90;;;;;;5066605;28;20034;-75
2021/12/08 12:52:44;;;;;;;6.35;1.98;;;;;;;;;;5068108;28;20040;-75
2021/12/08 12:55:15;;;;;;;8.93;3.15;;;;;;;;;;5060630;28;20036;-75
2021/12/08 12:58:03;;;;;;;14.10;2.70;;;6.40;99.90;;;;;;5060660;28;20037;-76
2021/12/08 13:00:49;;;;;;;9.88;2.28;;;6.40;99.90;;;;;;5064930;28;20123;-75
2021/12/08 13:03:34;;;;;;;11.63;3.25;;;;;;;;;;5061571;28;20020;-75
2021/12/08 13:06:00;;;;;;;8.13;2.22;;;;;;;;;;5065415;28;20035;-75
2021/12/08 13:08:30;;;;;;;7.03;1.42;;;;;;;;;;5063869;28;20061;-75
2021/12/08 13:10:56;;;;;;;11.82;2.28;;;;;;;;;;5061964;28;20040;-74
2021/12/08 13:13:22;;;;;;;7.32;2.95;;;;;;;;;;5063586;28;20374;-75
2021/12/08 13:15:48;;;;;;;9.27;2.58;;;;;;;;;;5063206;28;20482;-75
2021/12/08 13:18:18;;;;;;;12.25;2.17;;;;;;;;;;5060401;28;20036;-75
2021/12/08 13:21:01;;;;;;;9.85;2.40;;;6.70;99.90;;;;;;5071013;28;20032;-75
2021/12/08 13:23:29;;;;;;;9.20;1.63;;;6.90;99.90;;;;;;5061585;28;20087;-75
2021/12/08 13:26:02;;;;;;;7.28;1.77;;;;;;;;;;5045722;28;20044;-75
2021/12/08 13:28:37;;;;;;;9.88;1.83;;;;;;;;;;5065938;28;20449;-74
2021/12/08 13:31:26;;;;;;;9.00;1.38;;;6.60;99.90;;;;;;5063612;28;20111;-74
2021/12/08 13:33:52;;;;;;;7.78;1.63;;;;;;;;;;5070102;28;20025;-75
2021/12/08 13:36:18;;;;;;;8.48;2.00;;;;;;;;;;5062539;28;20059;-75
2021/12/08 13:38:44;;;;;;;6.07;2.13;;;;;;;;;;5066296;28;20028;-75
2021/12/08 13:41:15;;;;;;;10.25;1.92;;;6.90;99.90;;;;;;5064836;28;20138;-74
2021/12/08 13:43:43;;;;;;;8.45;2.38;;;6.60;99.90;;;;;;5069381;28;20028;-74
2021/12/08 13:46:10;;;;;;;9.38;1.88;;;;;;;;;;5064877;28;20470;-74
2021/12/08 13:48:37;;;;;;;6.30;1.30;;;;;;;;;;5055363;28;20075;-75
2021/12/08 13:51:18;;;;;;;8.88;1.65;;;6.70;99.90;;;;;;5064509;28;20032;-75
2021/12/08 13:53:44;;;;;;;10.73;2.28;;;;;;;;;;5077117;28;20031;-75
2021/12/08 13:56:10;;;;;;;10.35;2.28;;;;;;;;;;5066845;28;20041;-75
2021/12/08 13:58:38;;;;;;;4.32;1.55;;;;;;;;;;5062541;28;20558;-75
2021/12/08 14:01:04;;;;;;;7.00;2.03;;;;;;;;;;5062769;28;20115;-75
2021/12/08 14:03:39;;;;;;;12.32;2.13;;;;;;;;;;5061663;28;20031;-75
2021/12/08 14:06:07;;;;;;;8.07;2.53;;;;;;;;;;5065217;28;20043;-75
2021/12/08 14:08:38;;;;;;;5.97;1.73;;;;;;;;;;5063488;28;20020;-75
2021/12/08 14:11:10;;;;;;;8.90;1.95;;;;;;;;;;5041644;28;20028;-75
2021/12/08 14:13:37;;;;;;;6.75;2.20;;;;;;;;;;5066600;28;20039;-75
2021/12/08 14:16:05;;;;;;;7.10;2.00;;;;;;;;;;5068499;28;20044;-75
2021/12/08 14:18:37;;;;;;;5.90;1.83;;;;;;;;;;5062967;28;20044;-75
2021/12/08 14:21:06;;;;;;;10.75;2.40;;;;;;;;;;5050635;28;20028;-75
2021/12/08 14:23:33;;;;;;;8.18;2.05;;;;;;;;;;5070656;28;20029;-76
2021/12/08 14:26:23;;;;;;;9.43;1.77;;;6.80;99.90;;;;;;5050801;28;20044;-75
2021/12/08 14:28:53;;;;;;;8.52;1.77;;;;;;;;;;5065588;28;20028;-76
2021/12/08 14:31:24;;;;;;;9.88;2.63;;;;;;;;;;5067514;28;20038;-75
2021/12/08 14:34:09;;;;;;;11.60;2.20;;;;;;;;;;5085116;28;20035;-75
2021/12/08 14:36:35;;;;;;;6.82;2.17;;;;;;;;;;5068756;28;20104;-75
2021/12/08 14:39:01;;;;;;;7.82;2.58;;;;;;;;;;5070897;28;20111;-75
2021/12/08 14:41:31;;;;;;;7.82;2.72;;;6.60;99.90;;;;;;5067263;28;20041;-75
2021/12/08 14:44:04;;;;;;;7.38;1.88;;;;;;;;;;5064672;28;20037;-75
2021/12/08 14:46:30;;;;;;;10.85;3.13;;;;;;;;;;5061406;28;20028;-75
2021/12/08 14:49:02;;;;;;;10.70;3.03;;;6.20;99.90;;;;;;5062839;28;20117;-75
2021/12/08 14:51:29;;;;;;;10.37;3.33;;;6.70;99.90;;;;;;5072591;28;20036;-76
2021/12/08 14:54:07;;;;;;;9.77;2.72;;;;;;;;;;5066189;28;20044;-75
2021/12/08 14:56:35;;;;;;;9.50;1.75;;;;;;;;;;5071818;28;20048;-75
2021/12/08 14:59:01;;;;;;;7.75;1.50;;;;;;;;;;5067917;28;20028;-75
2021/12/08 15:01:27;;;;;;;10.32;2.28;;;;;;;;;;5070281;28;20112;-75
2021/12/08 15:03:53;;;;;;;9.13;3.65;;;;;;;;;;5076383;28;20615;-75
2021/12/08 15:06:20;;;;;;;8.27;2.53;;;;;;;;;;5065006;28;20055;-75
2021/12/08 15:08:47;;;;;;;9.27;1.70;;;;;;;;;;5052564;28;20028;-75
2021/12/08 15:11:20;;;;;;;12.00;2.97;;;;;;;;;;5051703;28;20445;-75
2021/12/08 15:13:46;;;;;;;10.10;2.05;;;;;;;;;;5066009;28;20063;-75
2021/12/08 15:16:13;;;;;;;9.38;2.95;;;;;;;;;;5047966;28;20028;-75
2021/12/08 15:18:39;;;;;;;7.75;2.30;;;;;;;;;;5069887;28;20046;-75
2021/12/08 15:21:10;;;;;;;8.10;2.25;;;;;;;;;;5064025;28;20112;-75
2021/12/08 15:23:47;;;;;;;12.80;3.37;;;;;;;;;;5075870;28;20031;-76
2021/12/08 15:26:15;;;;;;;23.25;4.60;;;;;;;;;;5064778;28;20028;-75